Time;durP1;ratioP1;P1;durP2;ratioP2;P2;SDS_P1;SDS_P2;PMS_P1;PMS_P2;Temp;Humidity;BMP_temperature;BMP_pressure;BME280_temperature;BME280_humidity;BME280_pressure;Samples;Min_cycle;Max_cycle;Signal;HPM_P1;HPM_P2
2023/08/15 00:02:13;;;;;;;;;;;;;;;25.05;45.25;101167.44;7396229;19;1851;-39
2023/08/15 00:04:41;;;;;;;;;;;;;;;25.05;45.26;101174.69;7397456;19;1475;-40
2023/08/15 00:07:12;;;;;;;;;;;;;;;24.94;45.46;101162.31;7398837;19;1014;-40
2023/08/15 00:09:41;;;;;;;;;;;;;;;24.92;45.73;101173.31;7397612;19;2021;-40
2023/08/15 00:12:10;;;;;;;;;;;;;;;24.95;45.76;101167.56;7397800;19;1712;-39
2023/08/15 00:14:38;;;;;;;;;;;;;;;25.04;45.58;101156.78;7397848;19;1302;-39
2023/08/15 00:17:06;;;;;;;;;;;;;;;25.13;45.55;101166.59;7397538;19;1463;-40
2023/08/15 00:19:35;;;;;;;;;;;;;;;25.11;45.16;101168.59;7397227;19;1385;-39
2023/08/15 00:22:03;;;;;;;;;;;;;;;24.95;45.56;101170.28;7395374;19;1853;-40
2023/08/15 00:24:34;;;;;;;;;;;;;;;24.92;45.53;101167.91;7396954;19;1246;-40
2023/08/15 00:27:02;;;;;;;;;;;;;;;25.00;45.32;101167.06;7397707;19;1392;-39
2023/08/15 00:29:30;;;;;;;;;;;;;;;25.05;45.15;101143.09;7397048;19;1396;-39
2023/08/15 00:31:59;;;;;;;;;;;;;;;24.97;45.29;101145.78;7396241;19;1160;-39
2023/08/15 00:34:27;;;;;;;;;;;;;;;24.96;45.27;101153.03;7396344;19;1234;-39
2023/08/15 00:36:55;;;;;;;;;;;;;;;24.89;45.54;101157.41;7395812;19;1964;-40
2023/08/15 00:39:23;;;;;;;;;;;;;;;24.95;46.24;101150.50;7395929;19;1307;-39
2023/08/15 00:41:54;;;;;;;;;;;;;;;24.95;46.06;101143.22;7395220;19;1845;-39
2023/08/15 00:44:23;;;;;;;;;;;;;;;24.87;45.44;101124.28;7396098;19;1262;-39
2023/08/15 00:46:51;;;;;;;;;;;;;;;24.90;45.65;101107.69;7396647;19;1231;-39
2023/08/15 00:49:20;;;;;;;;;;;;;;;24.88;45.51;101108.88;7397416;19;1420;-39
2023/08/15 00:51:49;;;;;;;;;;;;;;;24.83;45.51;101105.81;7396196;19;1041;-40
2023/08/15 00:54:17;;;;;;;;;;;;;;;24.95;45.61;101104.50;7396094;19;1235;-39
2023/08/15 00:56:46;;;;;;;;;;;;;;;24.88;45.82;101107.03;7394777;19;1196;-39
2023/08/15 00:59:17;;;;;;;;;;;;;;;24.87;45.50;101105.34;7396184;19;1400;-39
2023/08/15 01:01:45;;;;;;;;;;;;;;;24.83;45.27;101095.88;7395787;19;1871;-39
2023/08/15 01:04:14;;;;;;;;;;;;;;;24.64;45.88;101099.69;7397039;19;1258;-39
2023/08/15 01:06:43;;;;;;;;;;;;;;;24.79;45.75;101103.47;7396327;19;1419;-40
2023/08/15 01:09:11;;;;;;;;;;;;;;;24.83;46.05;101114.81;7395821;19;1449;-40
2023/08/15 01:11:42;;;;;;;;;;;;;;;24.86;45.88;101100.94;7395844;19;1160;-40
2023/08/15 01:14:14;;;;;;;;;;;;;;;24.86;45.68;101103.63;7395217;19;1186;-40
2023/08/15 01:16:48;;;;;;;;;;;;;;;24.84;45.56;101100.25;7395568;19;1440;-40
2023/08/15 01:19:22;;;;;;;;;;;;;;;24.79;45.67;101102.63;7394918;19;1392;-40
2023/08/15 01:21:51;;;;;;;;;;;;;;;24.88;45.44;101098.06;7393873;19;1844;-39
2023/08/15 01:24:22;;;;;;;;;;;;;;;24.83;45.44;101103.13;7394541;19;1391;-39
2023/08/15 01:26:50;;;;;;;;;;;;;;;24.72;45.86;101091.59;7395255;19;1399;-39
2023/08/15 01:29:18;;;;;;;;;;;;;;;24.82;46.55;101102.28;7395182;19;1211;-39
2023/08/15 01:31:53;;;;;;;;;;;;;;;24.80;46.04;101113.25;7394976;19;1301;-40
2023/08/15 01:34:25;;;;;;;;;;;;;;;24.84;45.98;101112.94;7395251;19;1270;-39
2023/08/15 01:36:55;;;;;;;;;;;;;;;24.75;45.43;101103.94;7395644;19;1207;-39
2023/08/15 01:39:30;;;;;;;;;;;;;;;24.67;45.81;101066.94;7395549;19;1383;-39
2023/08/15 01:41:59;;;;;;;;;;;;;;;24.75;46.22;101076.88;7394236;19;1838;-40
2023/08/15 01:44:28;;;;;;;;;;;;;;;24.74;47.06;101086.03;7395484;19;1392;-39
2023/08/15 01:46:56;;;;;;;;;;;;;;;24.72;47.33;101088.91;7394906;19;1428;-39
2023/08/15 01:49:25;;;;;;;;;;;;;;;24.82;47.72;101094.16;7395375;19;1306;-39
2023/08/15 01:51:54;;;;;;;;;;;;;;;24.80;48.35;101091.63;7395202;19;1297;-39
2023/08/15 01:54:22;;;;;;;;;;;;;;;24.81;48.47;101076.25;7394694;19;1302;-40
2023/08/15 01:56:53;;;;;;;;;;;;;;;24.73;48.79;101065.41;7393790;19;1325;-39
2023/08/15 01:59:21;;;;;;;;;;;;;;;24.86;49.26;101079.28;7396143;19;1224;-40
2023/08/15 02:01:49;;;;;;;;;;;;;;;24.81;49.69;101081.66;7399841;19;1864;-40
2023/08/15 02:04:18;;;;;;;;;;;;;;;24.77;49.67;101077.56;7402325;19;1293;-40
2023/08/15 02:06:46;;;;;;;;;;;;;;;24.73;49.57;101084.31;7401317;19;1407;-40
2023/08/15 02:09:14;;;;;;;;;;;;;;;24.71;50.40;101080.94;7401767;19;1345;-39
2023/08/15 02:11:43;;;;;;;;;;;;;;;24.68;50.61;101090.25;7401255;19;1277;-39
2023/08/15 02:14:13;;;;;;;;;;;;;;;24.75;50.67;101083.16;7401492;19;1400;-39
2023/08/15 02:16:42;;;;;;;;;;;;;;;24.69;50.68;101061.34;7402194;19;1396;-40
2023/08/15 02:19:10;;;;;;;;;;;;;;;24.49;51.86;101010.25;7401983;19;1486;-40
2023/08/15 02:21:38;;;;;;;;;;;;;;;24.40;51.30;100976.94;7401975;19;1847;-40
2023/08/15 02:24:07;;;;;;;;;;;;;;;24.39;50.62;101001.41;7401036;19;1238;-40
2023/08/15 02:26:35;;;;;;;;;;;;;;;24.41;50.40;101031.84;7400612;19;1503;-40
2023/08/15 02:29:04;;;;;;;;;;;;;;;24.63;50.46;101080.94;7400522;19;1216;-39
2023/08/15 02:31:35;;;;;;;;;;;;;;;24.75;50.60;101104.81;7400985;19;1403;-39
2023/08/15 02:34:04;;;;;;;;;;;;;;;24.76;50.86;101094.81;7401331;19;1419;-40
2023/08/15 02:36:32;;;;;;;;;;;;;;;24.77;51.22;101082.97;7400776;19;1282;-39
2023/08/15 02:39:00;;;;;;;;;;;;;;;24.81;50.98;101066.28;7399767;19;1507;-40
2023/08/15 02:41:28;;;;;;;;;;;;;;;24.64;51.68;101042.06;7400984;19;1502;-40
2023/08/15 02:43:57;;;;;;;;;;;;;;;24.54;52.17;101059.28;7397959;19;1855;-40
2023/08/15 02:46:26;;;;;;;;;;;;;;;24.68;51.78;101079.41;7401314;19;1325;-40
2023/08/15 02:48:57;;;;;;;;;;;;;;;24.86;51.83;101102.78;7400474;19;1282;-39
2023/08/15 02:51:25;;;;;;;;;;;;;;;24.85;51.77;101129.00;7399591;19;1195;-39
2023/08/15 02:53:54;;;;;;;;;;;;;;;24.85;51.71;101126.31;7400157;19;1356;-39
2023/08/15 02:56:22;;;;;;;;;;;;;;;24.85;51.92;101144.38;7399656;19;1408;-39
2023/08/15 02:58:52;;;;;;;;;;;;;;;24.75;52.11;101125.56;7400311;19;1274;-40
2023/08/15 03:01:20;;;;;;;;;;;;;;;24.50;52.91;101109.28;7400320;19;1357;-39
2023/08/15 03:03:48;;;;;;;;;;;;;;;24.41;53.10;101110.22;7398051;19;1864;-39
2023/08/15 03:06:19;;;;;;;;;;;;;;;24.42;53.09;101120.03;7399612;19;1403;-39
2023/08/15 03:08:48;;;;;;;;;;;;;;;24.54;52.17;101105.25;7399509;19;1278;-39
2023/08/15 03:11:16;;;;;;;;;;;;;;;24.54;51.83;101099.84;7396915;19;1458;-40
2023/08/15 03:13:44;;;;;;;;;;;;;;;24.59;51.75;101089.38;7399776;19;1364;-40
2023/08/15 03:16:13;;;;;;;;;;;;;;;24.61;51.77;101124.34;7399751;19;1400;-39
2023/08/15 03:18:41;;;;;;;;;;;;;;;24.67;51.79;101133.66;7399142;19;1160;-40
2023/08/15 03:21:10;;;;;;;;;;;;;;;24.79;52.34;101143.19;7400075;19;1175;-39
2023/08/15 03:23:41;;;;;;;;;;;;;;;24.81;52.31;101201.50;7397120;19;1842;-39
2023/08/15 03:26:09;;;;;;;;;;;;;;;24.73;52.04;101170.88;7399681;19;1211;-39
2023/08/15 03:28:35;;;;;;;;;;;;;;;24.72;51.89;101156.50;7399391;19;1403;-40
2023/08/15 03:31:06;;;;;;;;;;;;;;;24.58;52.46;101136.34;7398681;19;1308;-39
2023/08/15 03:33:34;;;;;;;;;;;;;;;24.37;52.46;101095.34;7398023;19;1401;-39
2023/08/15 03:36:03;;;;;;;;;;;;;;;24.42;52.55;101117.34;7398872;19;1210;-40
2023/08/15 03:38:31;;;;;;;;;;;;;;;24.59;52.46;101126.38;7399333;19;1310;-39
2023/08/15 03:41:06;;;;;;;;;;;;;;;24.69;52.54;101126.25;7399678;19;1107;-40
2023/08/15 03:43:34;;;;;;;;;;;;;;;24.76;52.63;101135.41;7395511;19;1842;-39
2023/08/15 03:46:03;;;;;;;;;;;;;;;24.79;52.70;101132.38;7397461;19;1501;-40
2023/08/15 03:48:35;;;;;;;;;;;;;;;24.81;52.37;101130.34;7395742;19;1383;-39
2023/08/15 03:51:04;;;;;;;;;;;;;;;24.79;52.67;101132.38;7398519;19;1215;-40
2023/08/15 03:53:32;;;;;;;;;;;;;;;24.80;52.37;101139.47;7398069;19;1228;-39
2023/08/15 03:56:00;;;;;;;;;;;;;;;24.55;52.76;101131.28;7396139;19;1273;-39
2023/08/15 03:58:31;;;;;;;;;;;;;;;24.44;52.73;101134.25;7397720;19;1152;-39
2023/08/15 04:01:01;;;;;;;;;;;;;;;24.52;52.62;101138.88;7398346;19;1195;-39
2023/08/15 04:03:29;;;;;;;;;;;;;;;24.58;52.57;101140.91;7397302;19;1853;-40
2023/08/15 04:05:57;;;;;;;;;;;;;;;24.67;52.66;101150.75;7398076;19;1828;-39
2023/08/15 04:08:26;;;;;;;;;;;;;;;24.72;52.58;101161.91;7397212;19;1885;-40
2023/08/15 04:10:54;;;;;;;;;;;;;;;24.71;52.95;101167.47;7398089;19;1393;-39
2023/08/15 04:13:22;;;;;;;;;;;;;;;24.76;53.25;101159.75;7396546;19;1214;-42
2023/08/15 04:15:53;;;;;;;;;;;;;;;24.80;53.35;101145.72;7393765;19;1572;-39
2023/08/15 04:18:22;;;;;;;;;;;;;;;24.77;53.65;101139.78;6871621;19;10000175;-39
2023/08/15 04:20:50;;;;;;;;;;;;;;;24.81;54.03;101165.50;7389418;19;1646;-39
2023/08/15 04:23:18;;;;;;;;;;;;;;;24.79;53.62;101144.03;7385877;19;1840;-39
2023/08/15 04:25:46;;;;;;;;;;;;;;;24.81;54.02;101160.94;7386981;19;1472;-39
2023/08/15 04:28:15;;;;;;;;;;;;;;;24.88;53.94;101166.53;7387570;19;1390;-39
2023/08/15 04:30:44;;;;;;;;;;;;;;;24.93;53.82;101161.47;7389383;19;1659;-39
2023/08/15 04:33:15;;;;;;;;;;;;;;;25.03;53.28;101155.94;7388619;19;1592;-39
2023/08/15 04:35:44;;;;;;;;;;;;;;;24.85;53.75;101175.00;7388744;19;1568;-39
2023/08/15 04:38:14;;;;;;;;;;;;;;;24.81;54.30;101185.28;7388768;19;1404;-39
2023/08/15 04:40:43;;;;;;;;;;;;;;;24.89;53.91;101167.38;7388155;19;1490;-39
2023/08/15 04:43:11;;;;;;;;;;;;;;;24.92;54.05;101154.38;7386564;19;1873;-38
2023/08/15 04:45:43;;;;;;;;;;;;;;;24.84;54.50;101162.47;7387238;19;1415;-40
2023/08/15 04:48:12;;;;;;;;;;;;;;;24.83;54.64;101177.03;7388238;19;1299;-40
2023/08/15 04:50:42;;;;;;;;;;;;;;;24.68;55.09;101173.25;7388862;19;1618;-40
2023/08/15 04:53:11;;;;;;;;;;;;;;;24.81;54.83;101160.09;7385755;19;1437;-40
2023/08/15 04:55:39;;;;;;;;;;;;;;;24.79;54.50;101159.44;7383909;19;1863;-40
2023/08/15 04:58:09;;;;;;;;;;;;;;;24.89;54.17;101164.66;7383930;19;1461;-40
2023/08/15 05:00:37;;;;;;;;;;;;;;;24.86;54.06;101155.03;7384460;19;1389;-40
2023/08/15 05:03:06;;;;;;;;;;;;;;;24.74;53.80;101159.91;7383999;19;1857;-40
2023/08/15 05:05:34;;;;;;;;;;;;;;;24.79;53.46;101159.44;7384001;19;1472;-40
2023/08/15 05:08:06;;;;;;;;;;;;;;;24.86;53.63;101175.84;7383111;19;1395;-40
2023/08/15 05:10:34;;;;;;;;;;;;;;;24.80;53.75;101169.22;7386474;19;1192;-41
2023/08/15 05:13:02;;;;;;;;;;;;;;;24.80;53.29;101161.94;7387470;19;1547;-40
2023/08/15 05:15:31;;;;;;;;;;;;;;;24.63;52.91;101151.22;7388411;19;1631;-41
2023/08/15 05:17:59;;;;;;;;;;;;;;;24.66;53.18;101159.03;7386745;19;2201;-40
2023/08/15 05:20:27;;;;;;;;;;;;;;;24.75;53.52;101156.19;7389126;19;1539;-40
2023/08/15 05:22:55;;;;;;;;;;;;;;;24.87;52.99;101166.69;7387865;19;1841;-40
2023/08/15 05:25:26;;;;;;;;;;;;;;;24.86;53.31;101178.53;7388214;19;1586;-40
2023/08/15 05:27:55;;;;;;;;;;;;;;;24.84;52.92;101157.06;7388147;19;1693;-40
2023/08/15 05:30:24;;;;;;;;;;;;;;;24.80;52.99;101152.97;7387112;19;1464;-40
2023/08/15 05:32:52;;;;;;;;;;;;;;;24.85;53.08;101169.59;7388075;19;1833;-41
2023/08/15 05:35:20;;;;;;;;;;;;;;;24.80;53.91;101158.41;7393034;19;1362;-40
2023/08/15 05:37:48;;;;;;;;;;;;;;;24.54;54.14;101170.13;7395015;19;1436;-40
2023/08/15 05:40:17;;;;;;;;;;;;;;;24.51;54.67;101184.00;7392210;19;1497;-40
2023/08/15 05:42:48;;;;;;;;;;;;;;;24.55;54.31;101168.25;7394498;19;1849;-40
2023/08/15 05:45:16;;;;;;;;;;;;;;;24.65;54.48;101160.03;7393348;19;1351;-40
2023/08/15 05:47:44;;;;;;;;;;;;;;;24.69;54.63;101155.97;7394723;19;1227;-40
2023/08/15 05:50:13;;;;;;;;;;;;;;;24.84;54.26;101159.75;7394089;19;1504;-40
2023/08/15 05:52:41;;;;;;;;;;;;;;;24.86;53.18;101154.19;7392202;19;1989;-40
2023/08/15 05:55:10;;;;;;;;;;;;;;;24.77;55.00;101169.53;7394516;19;1466;-40
2023/08/15 05:57:38;;;;;;;;;;;;;;;24.75;54.34;101167.00;7391914;19;1536;-41
2023/08/15 06:00:10;;;;;;;;;;;;;;;24.98;53.81;101164.53;7394101;19;1416;-40
2023/08/15 06:02:38;;;;;;;;;;;;;;;24.92;54.15;101156.22;7393284;19;1398;-40
2023/08/15 06:05:07;;;;;;;;;;;;;;;24.95;53.75;101173.00;7389174;19;1844;-41
2023/08/15 06:07:35;;;;;;;;;;;;;;;24.89;53.65;101157.41;7393965;19;1468;-40
2023/08/15 06:10:04;;;;;;;;;;;;;;;24.81;53.34;101149.28;7391886;19;1435;-40
2023/08/15 06:12:32;;;;;;;;;;;;;;;24.85;53.31;101150.66;7393946;19;2021;-40
2023/08/15 06:15:01;;;;;;;;;;;;;;;24.75;53.92;101133.69;7393111;19;1711;-41
2023/08/15 06:17:32;;;;;;;;;;;;;;;24.75;53.77;101153.50;7389748;19;2132;-40
2023/08/15 06:20:00;;;;;;;;;;;;;;;24.77;54.36;101151.47;7392046;19;1494;-40
2023/08/15 06:22:28;;;;;;;;;;;;;;;24.84;53.74;101148.09;7388703;19;1484;-40
2023/08/15 06:24:57;;;;;;;;;;;;;;;24.87;53.47;101145.91;7389921;19;1869;-40
2023/08/15 06:27:25;;;;;;;;;;;;;;;24.87;53.24;101143.22;7390474;19;1380;-41
2023/08/15 06:29:53;;;;;;;;;;;;;;;24.81;53.30;101149.28;7389451;19;1461;-40
2023/08/15 06:32:28;;;;;;;;;;;;;;;24.79;53.33;101183.75;7390782;19;1545;-40
2023/08/15 06:34:59;;;;;;;;;;;;;;;24.87;52.96;101145.03;7391158;19;1481;-40
2023/08/15 06:37:27;;;;;;;;;;;;;;;24.96;53.08;101146.78;7395356;19;1230;-40
2023/08/15 06:39:56;;;;;;;;;;;;;;;24.96;54.13;101142.19;7394895;19;1427;-40
2023/08/15 06:42:24;;;;;;;;;;;;;;;24.89;54.20;101141.19;7394723;19;1330;-40
2023/08/15 06:44:52;;;;;;;;;;;;;;;25.00;57.00;101151.69;7393737;19;1857;-40
2023/08/15 06:47:21;;;;;;;;;;;;;;;25.04;54.25;101146.78;7395874;19;1681;-40
2023/08/15 06:49:49;;;;;;;;;;;;;;;24.91;53.73;101141.00;7395568;19;1714;-40
2023/08/15 06:52:20;;;;;;;;;;;;;;;24.93;53.59;101156.06;7395653;19;1174;-40
2023/08/15 06:54:48;;;;;;;;;;;;;;;24.94;53.88;101140.69;7396418;19;1357;-40
2023/08/15 06:57:17;;;;;;;;;;;;;;;25.11;54.78;101152.38;7395596;19;1741;-40
2023/08/15 06:59:45;;;;;;;;;;;;;;;24.97;55.40;101149.31;7397541;19;1523;-40
2023/08/15 07:02:13;;;;;;;;;;;;;;;25.09;54.58;101151.69;7397188;19;1242;-40
2023/08/15 07:04:41;;;;;;;;;;;;;;;25.00;53.70;101151.69;7395700;19;1837;-40
2023/08/15 07:07:10;;;;;;;;;;;;;;;25.09;53.50;101154.41;7396804;19;1479;-40
2023/08/15 07:09:41;;;;;;;;;;;;;;;25.07;55.10;101167.25;7394169;19;1531;-40
2023/08/15 07:12:09;;;;;;;;;;;;;;;25.05;54.38;101171.97;7397832;19;1616;-40
2023/08/15 07:14:38;;;;;;;;;;;;;;;25.06;54.48;101144.75;7395020;19;1248;-40
2023/08/15 07:17:06;;;;;;;;;;;;;;;25.06;54.98;101152.88;7394415;19;1468;-40
2023/08/15 07:19:34;;;;;;;;;;;;;;;25.10;54.02;101154.22;7394690;19;1310;-40
2023/08/15 07:22:03;;;;;;;;;;;;;;;25.11;54.30;101160.47;7397996;19;1282;-40
2023/08/15 07:24:31;;;;;;;;;;;;;;;25.17;53.95;101165.25;7394781;19;1839;-40
2023/08/15 07:27:02;;;;;;;;;;;;;;;25.14;54.01;101150.19;7395615;19;1512;-40
2023/08/15 07:29:30;;;;;;;;;;;;;;;25.28;53.24;101158.69;7396539;19;1341;-40
2023/08/15 07:31:59;;;;;;;;;;;;;;;25.38;52.44;101130.44;7396688;19;1332;-40
2023/08/15 07:34:27;;;;;;;;;;;;;;;25.60;51.78;101156.00;7395824;19;1278;-40
2023/08/15 07:36:55;;;;;;;;;;;;;;;25.69;51.81;101148.72;7396020;19;1274;-40
2023/08/15 07:39:23;;;;;;;;;;;;;;;25.71;51.43;101143.13;7396326;19;1392;-40
2023/08/15 07:41:52;;;;;;;;;;;;;;;25.72;51.51;101134.81;7396996;19;1230;-41
2023/08/15 07:44:25;;;;;;;;;;;;;;;25.62;51.58;101136.84;7393916;19;1857;-40
2023/08/15 07:46:53;;;;;;;;;;;;;;;25.69;51.35;101135.16;7395232;19;1262;-41
2023/08/15 07:49:21;;;;;;;;;;;;;;;25.71;51.28;101141.25;7395503;19;1490;-40
2023/08/15 07:51:52;;;;;;;;;;;;;;;25.63;50.97;101137.72;7395076;19;1471;-40
2023/08/15 07:54:20;;;;;;;;;;;;;;;25.64;51.15;101163.78;7395371;19;1179;-41
2023/08/15 07:56:49;;;;;;;;;;;;;;;25.77;50.86;101132.44;7243771;19;2944365;-40
2023/08/15 07:59:17;;;;;;;;;;;;;;;25.85;50.06;101136.19;7397581;19;1380;-42
2023/08/15 08:01:48;;;;;;;;;;;;;;;25.88;50.01;101143.94;7397542;19;1324;-40
2023/08/15 08:04:19;;;;;;;;;;;;;;;25.93;49.69;101130.78;7397161;19;1855;-40
2023/08/15 08:06:48;;;;;;;;;;;;;;;25.92;49.54;101148.03;7397429;19;1332;-40
2023/08/15 08:09:16;;;;;;;;;;;;;;;25.91;49.36;101121.97;7397685;19;1329;-40
2023/08/15 08:11:45;;;;;;;;;;;;;;;26.03;49.40;101139.53;7397917;19;1195;-40
2023/08/15 08:14:13;;;;;;;;;;;;;;;25.96;49.31;101114.16;7397026;19;1332;-40
2023/08/15 08:16:41;;;;;;;;;;;;;;;25.95;49.05;101132.28;7397522;19;1549;-40
2023/08/15 08:19:12;;;;;;;;;;;;;;;25.93;49.05;101103.66;7396502;19;1203;-40
2023/08/15 08:21:40;;;;;;;;;;;;;;;26.03;49.32;101136.84;7396947;19;1262;-40
2023/08/15 08:24:09;;;;;;;;;;;;;;;25.98;49.34;101117.53;7397179;19;1837;-40
2023/08/15 08:26:37;;;;;;;;;;;;;;;26.02;49.30;101112.59;7396575;19;1479;-40
2023/08/15 08:29:06;;;;;;;;;;;;;;;25.94;49.39;101113.47;7397442;19;1156;-40
2023/08/15 08:31:34;;;;;;;;;;;;;;;25.87;49.26;101107.88;7397070;19;1356;-41
2023/08/15 08:34:03;;;;;;;;;;;;;;;25.78;49.67;101100.78;7397349;19;1432;-40
2023/08/15 08:36:33;;;;;;;;;;;;;;;25.80;49.91;101105.03;7396764;19;1975;-41
2023/08/15 08:39:02;;;;;;;;;;;;;;;25.89;49.43;101091.47;7396408;19;1313;-40
2023/08/15 08:41:30;;;;;;;;;;;;;;;25.99;49.51;101097.56;7396349;19;1324;-40
2023/08/15 08:43:58;;;;;;;;;;;;;;;25.89;49.58;101080.63;7397209;19;1841;-40
2023/08/15 08:46:27;;;;;;;;;;;;;;;25.84;50.11;101085.69;7394318;19;1945;-40
2023/08/15 08:48:56;;;;;;;;;;;;;;;25.81;49.59;101073.34;7395887;19;1441;-41
2023/08/15 08:51:25;;;;;;;;;;;;;;;25.84;49.88;101089.25;7397356;19;1246;-41
2023/08/15 08:53:56;;;;;;;;;;;;;;;25.90;49.58;101082.28;7395446;19;1411;-41
2023/08/15 08:56:25;;;;;;;;;;;;;;;25.40;49.90;101003.03;7393405;19;1376;-40
2023/08/15 08:59:02;;;;;;;;;;;;;;;25.86;50.11;101070.13;7394452;19;1312;-40
2023/08/15 09:01:32;;;;;;;;;;;;;;;25.99;49.78;101059.63;7393363;19;1180;-41
2023/08/15 09:04:00;;;;;;;;;;;;;;;26.12;49.74;101081.59;7395292;19;1872;-41
2023/08/15 09:06:29;;;;;;;;;;;;;;;26.17;49.59;101065.63;7394189;19;1191;-40
2023/08/15 09:09:01;;;;;;;;;;;;;;;26.23;49.81;101044.28;7393674;19;1511;-40
2023/08/15 09:11:35;;;;;;;;;;;;;;;26.15;50.22;101047.88;7396446;19;1451;-40
2023/08/15 09:14:04;;;;;;;;;;;;;;;26.23;49.85;101050.53;7396019;19;1408;-41
2023/08/15 09:16:32;;;;;;;;;;;;;;;26.29;49.87;101054.41;7395942;19;1536;-40
2023/08/15 09:19:02;;;;;;;;;;;;;;;26.33;49.81;101042.19;7392836;19;1976;-40
2023/08/15 09:21:31;;;;;;;;;;;;;;;26.37;49.80;101047.06;7396485;19;1325;-40
2023/08/15 09:24:02;;;;;;;;;;;;;;;26.33;49.53;101028.63;7395795;19;1843;-40
2023/08/15 09:26:34;;;;;;;;;;;;;;;26.32;49.69;101025.09;7396064;19;1289;-40
2023/08/15 09:29:04;;;;;;;;;;;;;;;26.33;49.41;101028.63;7396702;19;1218;-41
2023/08/15 09:31:32;;;;;;;;;;;;;;;26.27;49.79;101018.50;7395075;19;1423;-40
2023/08/15 09:34:00;;;;;;;;;;;;;;;26.30;49.52;101012.72;7395144;19;1303;-40
2023/08/15 09:36:29;;;;;;;;;;;;;;;26.42;49.32;101010.44;7393554;19;1435;-40
2023/08/15 09:38:59;;;;;;;;;;;;;;;26.43;49.39;101029.25;7393415;19;1329;-41
2023/08/15 09:41:30;;;;;;;;;;;;;;;26.40;50.29;101018.75;7395062;19;1123;-40
2023/08/15 09:43:58;;;;;;;;;;;;;;;26.35;49.90;101023.88;7392472;19;1780;-40
2023/08/15 09:46:26;;;;;;;;;;;;;;;26.42;50.27;101019.41;7391906;19;1851;-40
2023/08/15 09:48:55;;;;;;;;;;;;;;;26.46;50.29;101034.31;7390884;19;1563;-40
2023/08/15 09:51:24;;;;;;;;;;;;;;;26.30;51.11;101007.28;7390296;19;1567;-44
2023/08/15 09:53:52;;;;;;;;;;;;;;;26.35;51.34;101004.91;7394852;19;1097;-44
2023/08/15 09:56:20;;;;;;;;;;;;;;;26.38;51.47;101001.81;7394333;19;1354;-44
2023/08/15 09:58:51;;;;;;;;;;;;;;;26.29;51.54;100983.91;7393916;19;1661;-48
2023/08/15 10:01:20;;;;;;;;;;;;;;;26.38;51.18;101004.53;7394213;19;1344;-44
2023/08/15 10:03:49;;;;;;;;;;;;;;;26.22;52.58;100978.34;7395363;19;1580;-44
2023/08/15 10:06:17;;;;;;;;;;;;;;;26.15;52.79;101002.63;7392321;19;1838;-44
2023/08/15 10:08:47;;;;;;;;;;;;;;;26.13;53.03;100995.69;7393778;19;1249;-45
2023/08/15 10:11:15;;;;;;;;;;;;;;;26.12;53.82;100970.47;7391956;19;1398;-42
2023/08/15 10:13:44;;;;;;;;;;;;;;;26.07;54.04;100964.72;7375758;19;1468;-44
2023/08/15 10:16:15;;;;;;;;;;;;;;;26.13;54.38;100976.72;7386986;19;1009;-42
2023/08/15 10:18:53;;;;;;;;;;;;;;;25.94;55.08;100967.16;7388726;19;1667;-42
2023/08/15 10:21:21;;;;;;;;;;;;;;;25.63;52.45;100965.22;7390779;19;1434;-42
2023/08/15 10:23:49;;;;;;;;;;;;;;;25.54;51.28;100963.56;7397619;19;1395;-43
2023/08/15 10:26:19;;;;;;;;;;;;;;;25.38;50.94;100973.41;7391130;19;1881;-42
2023/08/15 10:28:48;;;;;;;;;;;;;;;25.32;50.64;101001.16;7395999;19;1279;-42
2023/08/15 10:31:35;;;;;;;;;;;;;;;25.20;50.25;100970.88;7394695;19;1701;-42
2023/08/15 10:34:04;;;;;;;;;;;;;;;25.19;49.48;100960.25;7396437;19;1034;-41
2023/08/15 10:36:32;;;;;;;;;;;;;;;25.12;49.67;100965.47;7396694;19;1274;-41
2023/08/15 10:39:08;;;;;;;;;;;;;;;25.09;49.13;100970.38;7394909;19;1384;-42
2023/08/15 10:41:37;;;;;;;;;;;;;;;25.06;49.16;100963.47;7395127;19;1463;-42
2023/08/15 10:44:07;;;;;;;;;;;;;;;25.07;49.03;100953.47;7395413;19;1407;-41
2023/08/15 10:46:39;;;;;;;;;;;;;;;25.07;49.49;100948.94;7391617;19;1833;-41
2023/08/15 10:49:13;;;;;;;;;;;;;;;25.06;49.22;100938.28;7394738;19;1300;-41
2023/08/15 10:51:42;;;;;;;;;;;;;;;25.11;49.45;100931.34;7392098;19;1340;-41
2023/08/15 10:54:11;;;;;;;;;;;;;;;25.11;49.37;100935.88;7382834;19;1407;-42
2023/08/15 10:56:40;;;;;;;;;;;;;;;25.07;49.09;100945.34;7391575;19;1937;-41
2023/08/15 10:59:11;;;;;;;;;;;;;;;25.04;49.15;100946.56;7393906;19;1384;-43
2023/08/15 11:01:43;;;;;;;;;;;;;;;24.99;48.73;100933.56;7393958;19;1343;-42
2023/08/15 11:04:16;;;;;;;;;;;;;;;24.97;48.89;100929.34;7394089;19;1257;-42
2023/08/15 11:06:46;;;;;;;;;;;;;;;25.07;48.72;100950.78;7390604;19;1848;-41
2023/08/15 11:09:14;;;;;;;;;;;;;;;25.10;48.40;100958.56;7394299;19;1250;-41
2023/08/15 11:11:43;;;;;;;;;;;;;;;24.94;48.59;100949.44;7396134;19;1626;-41
2023/08/15 11:14:16;;;;;;;;;;;;;;;25.07;48.84;100945.34;7395618;19;1184;-42
2023/08/15 11:16:48;;;;;;;;;;;;;;;25.05;48.36;100939.28;7391896;19;1210;-42
2023/08/15 11:19:16;;;;;;;;;;;;;;;24.96;47.95;100950.09;7393754;19;1297;-41
2023/08/15 11:21:45;;;;;;;;;;;;;;;24.93;48.14;100939.66;7395419;19;1203;-41
2023/08/15 11:24:13;;;;;;;;;;;;;;;24.88;48.02;100916.81;7394849;19;1820;-41
2023/08/15 11:26:42;;;;;;;;;;;;;;;24.85;47.91;100926.13;7395164;19;1838;-42
2023/08/15 11:29:12;;;;;;;;;;;;;;;24.96;47.71;100933.03;7396438;19;1313;-41
2023/08/15 11:31:41;;;;;;;;;;;;;;;24.88;47.75;100927.66;7395635;19;1167;-42
2023/08/15 11:34:12;;;;;;;;;;;;;;;24.83;47.65;100932.72;7381652;19;1442;-41
2023/08/15 11:36:40;;;;;;;;;;;;;;;24.84;47.61;100945.22;7393537;19;1595;-41
2023/08/15 11:39:13;;;;;;;;;;;;;;;24.80;47.37;100934.72;7392846;19;1340;-42
2023/08/15 11:41:41;;;;;;;;;;;;;;;24.79;47.48;100926.81;7393894;19;1459;-41
2023/08/15 11:44:10;;;;;;;;;;;;;;;24.80;47.30;100928.50;7388802;19;1910;-41
2023/08/15 11:46:41;;;;;;;;;;;;;;;24.78;47.45;100925.13;7391745;19;1861;-42
2023/08/15 11:49:17;;;;;;;;;;;;;;;24.78;47.19;100931.34;7390526;19;1513;-41
2023/08/15 11:51:45;;;;;;;;;;;;;;;24.77;47.02;100918.88;7394923;19;1176;-51
2023/08/15 11:54:14;;;;;;;;;;;;;;;24.81;47.05;100908.56;7394012;19;1282;-46
2023/08/15 11:56:52;;;;;;;;;;;;;;;24.83;47.17;100902.94;7393023;19;1554;-42
2023/08/15 11:59:20;;;;;;;;;;;;;;;24.35;46.91;100856.81;7391884;19;1242;-42
2023/08/15 12:01:49;;;;;;;;;;;;;;;24.77;47.05;100902.63;7391898;19;1164;-41
2023/08/15 12:04:20;;;;;;;;;;;;;;;24.93;46.55;100896.38;7392863;19;1467;-42
2023/08/15 12:06:49;;;;;;;;;;;;;;;24.93;46.28;100884.66;7391656;19;1855;-45
2023/08/15 12:09:17;;;;;;;;;;;;;;;24.83;46.70;100894.84;7392404;19;1476;-42
2023/08/15 12:11:45;;;;;;;;;;;;;;;24.88;46.41;100881.66;7392035;19;1294;-43
2023/08/15 12:14:20;;;;;;;;;;;;;;;24.81;46.70;100895.03;7393085;19;1495;-45
2023/08/15 12:16:49;;;;;;;;;;;;;;;24.82;46.54;100894.00;7393097;19;1496;-42
2023/08/15 12:19:19;;;;;;;;;;;;;;;24.77;46.46;100885.53;7391123;19;1505;-42
2023/08/15 12:21:48;;;;;;;;;;;;;;;24.75;46.61;100898.38;7392176;19;1218;-42
2023/08/15 12:24:16;;;;;;;;;;;;;;;24.73;46.60;100892.31;7389921;19;1467;-42
2023/08/15 12:26:44;;;;;;;;;;;;;;;24.69;46.27;100863.91;7388978;19;1885;-42
2023/08/15 12:29:13;;;;;;;;;;;;;;;24.63;46.20;100884.41;7391587;19;1278;-42
2023/08/15 12:31:41;;;;;;;;;;;;;;;24.64;46.32;100896.06;7390854;19;1111;-42
2023/08/15 12:34:09;;;;;;;;;;;;;;;24.68;46.30;100892.00;7390861;19;1204;-42
2023/08/15 12:36:40;;;;;;;;;;;;;;;24.67;46.04;100874.06;7392772;19;1176;-42
2023/08/15 12:39:09;;;;;;;;;;;;;;;24.68;46.02;100886.59;7390835;19;1279;-52
2023/08/15 12:41:37;;;;;;;;;;;;;;;24.69;46.16;100890.97;7391647;19;1340;-52
2023/08/15 12:44:06;;;;;;;;;;;;;;;24.68;46.04;100875.78;7390451;19;1404;-51
2023/08/15 12:46:34;;;;;;;;;;;;;;;24.70;46.26;100862.91;7389312;19;1853;-43
2023/08/15 12:49:02;;;;;;;;;;;;;;;24.73;45.85;100884.19;7392158;19;1116;-42
2023/08/15 12:51:31;;;;;;;;;;;;;;;24.71;45.77;100875.41;7389579;19;1365;-42
2023/08/15 12:54:02;;;;;;;;;;;;;;;24.63;45.97;100873.59;7389532;19;1411;-42
2023/08/15 12:56:30;;;;;;;;;;;;;;;24.68;46.17;100870.34;7389591;19;1467;-49